CYZD weather

Downsview Airport
Toronto, Ontario, Canada

Public forecast

Using degrees Celsius for public forecast. Weather courtesy of forecast.io.

Closest aviation weather report (METAR) to Downsview Airport

Closest report is Billy Bishop Toronto City Centre Airport, 7.5 nm (14.0 km) SSE. Retrieved 2019/12/10 13:00 UTC (14 minutes ago):

CYTZ 101300Z AUTO 28018G23KT 9SM FEW027 BKN036 OVC047 03/M02 A2972 RMK PRESRR SLP067

Closest aviation forecast (TAF) to Downsview Airport

Closest forecast is Billy Bishop Toronto City Centre Airport, 7.5 nm (14.0 km) SSE. Retrieved 2019/12/10 14:45 UTC (0 seconds ago):

TAF CYTZ 101340Z 1014/1114 28015G25KT P6SM BKN030 FM102100 28012G22KT P6SM -SHSN BKN025 TEMPO 1021/1104 21/2SM -SHSN OVC020 PROB30 1021/1104 11/2SM -SHSN VV010 FM110400 27012KT P6SM SCT025 BECMG 1112/1114 24012G22KT RMK FCST BASED ON AUTO OBS NXT FCST BY 102000Z